Search for airport 
image banner adimage banner adimage banner ad
image banner ad

KLAS - Mc Carran Intl

Located in Las Vegas, United States

ICAO - LAS, IATA - LAS

Data provided by Airmate  

General information

Coordinates: N36°4'48" W115°9'8"
Elevation is 2181 feet MSL.
Magnetic variation is 11° East
View others Airports in Nevada

Operational data

Special qualification required
Current time UTC:
Current local time:
Weather
METAR: KLAS 092156Z 03005KT 10SM FEW250 29/M11 A2979 RMK AO2 SLP065 T02941111 $
TAF: KLAS 092057Z 0921/1024 10006KT P6SM FEW250 FM092200 23012G20KT P6SM FEW250 FM100400 22010KT P6SM FEW200 FM101500 04009KT P6SM SKC
View NOTAMs / SUP AIP / TFR affecting this airport [VIEW]
Communications frequencies: [VIEW]

Runways:

RWY identifierQFULength (ft)Width (ft)SurfaceLDA (ft)
01R25°9771150CONC8782
19L205°9771150CONC8803
01L25°8988150CONC8401
19R205°8988150CONC8400
08L90°14515150CONC11960
26R270°14515150CONC12639
08R90°10526150CONC10525
26L270°10526150CONC10525

Airport contact information

Address: Las Vegas United States

Satellite view of KLAS